sensor_id;sensor_type;location;lat;lon;timestamp;temperature;humidity
75819;DHT22;64453;51.944;9.796;2023-12-04T00:00:15;6.10;45.30
75819;DHT22;64453;51.944;9.796;2023-12-04T00:02:42;6.10;45.10
75819;DHT22;64453;51.944;9.796;2023-12-04T00:05:09;5.90;44.80
75819;DHT22;64453;51.944;9.796;2023-12-04T00:07:36;6.00;45.40
75819;DHT22;64453;51.944;9.796;2023-12-04T00:10:03;6.10;45.00
75819;DHT22;64453;51.944;9.796;2023-12-04T00:12:31;6.20;45.00
75819;DHT22;64453;51.944;9.796;2023-12-04T00:14:59;6.00;44.50
75819;DHT22;64453;51.944;9.796;2023-12-04T00:17:26;6.10;44.60
75819;DHT22;64453;51.944;9.796;2023-12-04T00:19:53;6.10;44.40
75819;DHT22;64453;51.944;9.796;2023-12-04T00:22:20;5.80;44.90
75819;DHT22;64453;51.944;9.796;2023-12-04T00:24:55;5.90;44.60
75819;DHT22;64453;51.944;9.796;2023-12-04T00:27:22;6.10;44.20
75819;DHT22;64453;51.944;9.796;2023-12-04T00:29:52;6.30;44.40
75819;DHT22;64453;51.944;9.796;2023-12-04T00:32:20;6.10;44.40
75819;DHT22;64453;51.944;9.796;2023-12-04T00:34:47;5.80;44.50
75819;DHT22;64453;51.944;9.796;2023-12-04T00:37:14;5.90;44.40
75819;DHT22;64453;51.944;9.796;2023-12-04T00:39:41;6.10;44.20
75819;DHT22;64453;51.944;9.796;2023-12-04T00:42:08;5.80;44.50
75819;DHT22;64453;51.944;9.796;2023-12-04T00:44:35;6.10;44.20
75819;DHT22;64453;51.944;9.796;2023-12-04T00:47:02;6.00;44.40
75819;DHT22;64453;51.944;9.796;2023-12-04T00:49:30;6.00;44.40
75819;DHT22;64453;51.944;9.796;2023-12-04T00:51:57;6.00;44.90
75819;DHT22;64453;51.944;9.796;2023-12-04T00:54:24;6.00;45.20
75819;DHT22;64453;51.944;9.796;2023-12-04T00:56:51;6.10;45.30
75819;DHT22;64453;51.944;9.796;2023-12-04T00:59:18;6.20;45.40
75819;DHT22;64453;51.944;9.796;2023-12-04T01:01:45;6.20;45.50
75819;DHT22;64453;51.944;9.796;2023-12-04T01:04:12;6.30;45.60
75819;DHT22;64453;51.944;9.796;2023-12-04T01:06:40;6.10;45.40
75819;DHT22;64453;51.944;9.796;2023-12-04T01:09:07;5.90;45.70
75819;DHT22;64453;51.944;9.796;2023-12-04T01:11:34;6.20;46.00
75819;DHT22;64453;51.944;9.796;2023-12-04T01:14:02;6.10;45.70
75819;DHT22;64453;51.944;9.796;2023-12-04T01:16:29;6.30;46.10
75819;DHT22;64453;51.944;9.796;2023-12-04T01:18:56;6.20;45.90
75819;DHT22;64453;51.944;9.796;2023-12-04T01:21:23;6.00;46.10
75819;DHT22;64453;51.944;9.796;2023-12-04T01:23:51;6.20;46.00
75819;DHT22;64453;51.944;9.796;2023-12-04T01:26:18;6.20;46.50
75819;DHT22;64453;51.944;9.796;2023-12-04T01:28:45;6.10;46.40
75819;DHT22;64453;51.944;9.796;2023-12-04T01:31:11;6.20;46.60
75819;DHT22;64453;51.944;9.796;2023-12-04T01:33:38;6.30;46.60
75819;DHT22;64453;51.944;9.796;2023-12-04T01:36:06;6.30;46.70
75819;DHT22;64453;51.944;9.796;2023-12-04T01:38:33;6.20;46.50
75819;DHT22;64453;51.944;9.796;2023-12-04T01:41:01;6.40;46.60
75819;DHT22;64453;51.944;9.796;2023-12-04T01:43:28;6.40;46.60
75819;DHT22;64453;51.944;9.796;2023-12-04T01:45:56;6.20;46.60
75819;DHT22;64453;51.944;9.796;2023-12-04T01:48:25;6.10;46.60
75819;DHT22;64453;51.944;9.796;2023-12-04T01:50:52;6.20;46.60
75819;DHT22;64453;51.944;9.796;2023-12-04T01:53:19;6.20;46.80
75819;DHT22;64453;51.944;9.796;2023-12-04T01:55:46;6.20;46.90
75819;DHT22;64453;51.944;9.796;2023-12-04T01:58:14;6.20;47.00
75819;DHT22;64453;51.944;9.796;2023-12-04T02:00:41;6.10;47.10
75819;DHT22;64453;51.944;9.796;2023-12-04T02:03:08;6.10;46.70
75819;DHT22;64453;51.944;9.796;2023-12-04T02:05:37;6.40;46.90
75819;DHT22;64453;51.944;9.796;2023-12-04T02:08:04;6.20;46.50
75819;DHT22;64453;51.944;9.796;2023-12-04T02:10:31;6.20;45.80
75819;DHT22;64453;51.944;9.796;2023-12-04T02:12:58;6.20;46.40
75819;DHT22;64453;51.944;9.796;2023-12-04T02:15:27;6.00;47.00
75819;DHT22;64453;51.944;9.796;2023-12-04T02:17:55;6.10;46.70
75819;DHT22;64453;51.944;9.796;2023-12-04T02:20:30;6.10;46.70
75819;DHT22;64453;51.944;9.796;2023-12-04T02:22:58;6.00;46.60
75819;DHT22;64453;51.944;9.796;2023-12-04T02:25:26;6.20;46.00
75819;DHT22;64453;51.944;9.796;2023-12-04T02:27:56;6.20;45.80
75819;DHT22;64453;51.944;9.796;2023-12-04T02:30:26;6.40;45.80
75819;DHT22;64453;51.944;9.796;2023-12-04T02:32:58;6.00;45.40
75819;DHT22;64453;51.944;9.796;2023-12-04T02:35:29;6.10;45.30
75819;DHT22;64453;51.944;9.796;2023-12-04T02:37:59;6.20;43.80
75819;DHT22;64453;51.944;9.796;2023-12-04T02:40:28;6.20;44.20
75819;DHT22;64453;51.944;9.796;2023-12-04T02:42:55;6.10;44.60
75819;DHT22;64453;51.944;9.796;2023-12-04T02:45:22;6.20;45.00
75819;DHT22;64453;51.944;9.796;2023-12-04T02:47:49;6.20;43.50
75819;DHT22;64453;51.944;9.796;2023-12-04T02:50:16;6.10;43.10
75819;DHT22;64453;51.944;9.796;2023-12-04T02:52:43;6.20;43.30
75819;DHT22;64453;51.944;9.796;2023-12-04T02:55:10;6.30;43.00
75819;DHT22;64453;51.944;9.796;2023-12-04T02:57:38;5.90;43.30
75819;DHT22;64453;51.944;9.796;2023-12-04T03:00:06;5.90;42.90
75819;DHT22;64453;51.944;9.796;2023-12-04T03:02:34;6.00;43.30
75819;DHT22;64453;51.944;9.796;2023-12-04T03:05:01;6.10;42.60
75819;DHT22;64453;51.944;9.796;2023-12-04T03:07:28;6.30;43.00
75819;DHT22;64453;51.944;9.796;2023-12-04T03:09:55;6.20;43.60
75819;DHT22;64453;51.944;9.796;2023-12-04T03:12:21;6.20;43.10
75819;DHT22;64453;51.944;9.796;2023-12-04T03:14:50;5.80;42.80
75819;DHT22;64453;51.944;9.796;2023-12-04T03:17:17;6.10;43.40
75819;DHT22;64453;51.944;9.796;2023-12-04T03:19:44;6.10;43.20
75819;DHT22;64453;51.944;9.796;2023-12-04T03:22:11;6.10;42.50
75819;DHT22;64453;51.944;9.796;2023-12-04T03:24:38;6.00;42.40
75819;DHT22;64453;51.944;9.796;2023-12-04T03:27:05;6.20;42.60
75819;DHT22;64453;51.944;9.796;2023-12-04T03:29:32;6.30;43.20
75819;DHT22;64453;51.944;9.796;2023-12-04T03:32:00;6.10;42.60
75819;DHT22;64453;51.944;9.796;2023-12-04T03:34:27;6.20;42.70
75819;DHT22;64453;51.944;9.796;2023-12-04T03:36:54;6.40;42.60
75819;DHT22;64453;51.944;9.796;2023-12-04T03:39:21;6.40;43.30
75819;DHT22;64453;51.944;9.796;2023-12-04T03:41:48;6.50;42.80
75819;DHT22;64453;51.944;9.796;2023-12-04T03:44:15;6.10;41.60
75819;DHT22;64453;51.944;9.796;2023-12-04T03:46:42;6.20;41.80
75819;DHT22;64453;51.944;9.796;2023-12-04T03:49:10;6.30;41.70
75819;DHT22;64453;51.944;9.796;2023-12-04T03:51:39;6.20;42.60
75819;DHT22;64453;51.944;9.796;2023-12-04T03:54:06;6.30;43.20
75819;DHT22;64453;51.944;9.796;2023-12-04T03:56:32;6.30;42.80
75819;DHT22;64453;51.944;9.796;2023-12-04T03:58:58;6.30;43.10
75819;DHT22;64453;51.944;9.796;2023-12-04T04:01:25;6.40;43.60
75819;DHT22;64453;51.944;9.796;2023-12-04T04:03:52;6.50;43.20
75819;DHT22;64453;51.944;9.796;2023-12-04T04:06:20;6.60;43.50
75819;DHT22;64453;51.944;9.796;2023-12-04T04:08:48;6.60;43.00
75819;DHT22;64453;51.944;9.796;2023-12-04T04:11:14;6.60;43.20
75819;DHT22;64453;51.944;9.796;2023-12-04T04:13:41;6.50;43.00
75819;DHT22;64453;51.944;9.796;2023-12-04T04:16:13;6.50;43.40
75819;DHT22;64453;51.944;9.796;2023-12-04T04:18:40;6.50;43.10
75819;DHT22;64453;51.944;9.796;2023-12-04T04:21:08;6.40;43.90
75819;DHT22;64453;51.944;9.796;2023-12-04T04:23:36;6.50;43.50
75819;DHT22;64453;51.944;9.796;2023-12-04T04:26:03;6.50;43.60
75819;DHT22;64453;51.944;9.796;2023-12-04T04:28:30;6.60;43.80
75819;DHT22;64453;51.944;9.796;2023-12-04T04:30:58;6.50;43.80
75819;DHT22;64453;51.944;9.796;2023-12-04T04:33:25;6.50;42.90
75819;DHT22;64453;51.944;9.796;2023-12-04T04:35:51;6.50;43.40
75819;DHT22;64453;51.944;9.796;2023-12-04T04:38:18;6.50;43.20
75819;DHT22;64453;51.944;9.796;2023-12-04T04:40:46;6.50;43.70
75819;DHT22;64453;51.944;9.796;2023-12-04T04:43:13;6.40;43.10
75819;DHT22;64453;51.944;9.796;2023-12-04T04:45:40;6.30;43.70
75819;DHT22;64453;51.944;9.796;2023-12-04T04:48:07;6.50;43.70
75819;DHT22;64453;51.944;9.796;2023-12-04T04:50:34;6.60;43.40
75819;DHT22;64453;51.944;9.796;2023-12-04T04:53:00;6.50;43.20
75819;DHT22;64453;51.944;9.796;2023-12-04T04:55:27;6.50;43.10
75819;DHT22;64453;51.944;9.796;2023-12-04T04:57:57;6.50;43.20
75819;DHT22;64453;51.944;9.796;2023-12-04T05:00:24;6.20;42.50
75819;DHT22;64453;51.944;9.796;2023-12-04T05:02:50;6.40;43.60
75819;DHT22;64453;51.944;9.796;2023-12-04T05:05:17;6.50;43.10
75819;DHT22;64453;51.944;9.796;2023-12-04T05:07:44;6.20;43.90
75819;DHT22;64453;51.944;9.796;2023-12-04T05:10:11;6.40;43.70
75819;DHT22;64453;51.944;9.796;2023-12-04T05:12:38;6.40;43.30
75819;DHT22;64453;51.944;9.796;2023-12-04T05:15:07;6.40;43.70
75819;DHT22;64453;51.944;9.796;2023-12-04T05:17:34;6.20;43.40
75819;DHT22;64453;51.944;9.796;2023-12-04T05:20:00;6.00;43.50
75819;DHT22;64453;51.944;9.796;2023-12-04T05:22:27;6.20;43.90
75819;DHT22;64453;51.944;9.796;2023-12-04T05:24:54;6.40;43.90
75819;DHT22;64453;51.944;9.796;2023-12-04T05:27:21;6.40;43.60
75819;DHT22;64453;51.944;9.796;2023-12-04T05:29:48;6.40;43.00
75819;DHT22;64453;51.944;9.796;2023-12-04T05:32:16;6.10;42.10
75819;DHT22;64453;51.944;9.796;2023-12-04T05:34:43;6.40;42.80
75819;DHT22;64453;51.944;9.796;2023-12-04T05:37:09;6.40;43.00
75819;DHT22;64453;51.944;9.796;2023-12-04T05:39:36;6.50;43.10
75819;DHT22;64453;51.944;9.796;2023-12-04T05:42:03;6.60;42.90
75819;DHT22;64453;51.944;9.796;2023-12-04T05:44:31;6.60;42.80
75819;DHT22;64453;51.944;9.796;2023-12-04T05:46:58;6.60;42.70
75819;DHT22;64453;51.944;9.796;2023-12-04T05:49:26;6.50;42.90
75819;DHT22;64453;51.944;9.796;2023-12-04T05:51:54;6.60;42.50
75819;DHT22;64453;51.944;9.796;2023-12-04T05:54:21;6.40;42.60
75819;DHT22;64453;51.944;9.796;2023-12-04T05:56:48;6.40;42.50
75819;DHT22;64453;51.944;9.796;2023-12-04T05:59:15;6.30;42.90
75819;DHT22;64453;51.944;9.796;2023-12-04T06:01:41;6.50;42.20
75819;DHT22;64453;51.944;9.796;2023-12-04T06:04:09;6.40;42.70
75819;DHT22;64453;51.944;9.796;2023-12-04T06:06:37;6.40;43.10
75819;DHT22;64453;51.944;9.796;2023-12-04T06:09:04;6.60;42.90
75819;DHT22;64453;51.944;9.796;2023-12-04T06:11:33;6.60;43.00
75819;DHT22;64453;51.944;9.796;2023-12-04T06:13:59;6.80;42.80
75819;DHT22;64453;51.944;9.796;2023-12-04T06:16:26;6.70;42.60
75819;DHT22;64453;51.944;9.796;2023-12-04T06:18:53;6.50;42.20
75819;DHT22;64453;51.944;9.796;2023-12-04T06:21:20;6.70;42.60
75819;DHT22;64453;51.944;9.796;2023-12-04T06:23:49;6.70;42.50
75819;DHT22;64453;51.944;9.796;2023-12-04T06:26:17;6.80;42.30
75819;DHT22;64453;51.944;9.796;2023-12-04T06:28:45;6.60;42.80
75819;DHT22;64453;51.944;9.796;2023-12-04T06:31:13;6.60;42.40
75819;DHT22;64453;51.944;9.796;2023-12-04T06:33:40;6.50;42.50
75819;DHT22;64453;51.944;9.796;2023-12-04T06:36:10;6.50;42.40
75819;DHT22;64453;51.944;9.796;2023-12-04T06:38:40;6.60;42.40
75819;DHT22;64453;51.944;9.796;2023-12-04T06:41:10;6.60;42.60
75819;DHT22;64453;51.944;9.796;2023-12-04T06:43:39;6.60;42.30
75819;DHT22;64453;51.944;9.796;2023-12-04T06:46:07;6.40;42.60
75819;DHT22;64453;51.944;9.796;2023-12-04T06:48:35;6.40;43.10
75819;DHT22;64453;51.944;9.796;2023-12-04T06:51:02;6.50;42.50
75819;DHT22;64453;51.944;9.796;2023-12-04T06:53:30;6.50;42.60
75819;DHT22;64453;51.944;9.796;2023-12-04T06:55:57;6.50;42.40
75819;DHT22;64453;51.944;9.796;2023-12-04T06:58:25;6.50;42.20
75819;DHT22;64453;51.944;9.796;2023-12-04T07:00:52;6.60;42.60
75819;DHT22;64453;51.944;9.796;2023-12-04T07:03:18;6.60;42.80
75819;DHT22;64453;51.944;9.796;2023-12-04T07:05:45;6.60;42.10
75819;DHT22;64453;51.944;9.796;2023-12-04T07:08:12;6.60;42.50
75819;DHT22;64453;51.944;9.796;2023-12-04T07:10:39;6.60;42.60
75819;DHT22;64453;51.944;9.796;2023-12-04T07:13:06;6.20;41.40
75819;DHT22;64453;51.944;9.796;2023-12-04T07:15:34;6.20;42.20
75819;DHT22;64453;51.944;9.796;2023-12-04T07:18:01;6.40;42.30
75819;DHT22;64453;51.944;9.796;2023-12-04T07:20:27;6.30;42.20
75819;DHT22;64453;51.944;9.796;2023-12-04T07:22:54;5.80;41.70
75819;DHT22;64453;51.944;9.796;2023-12-04T07:25:23;6.30;41.90
75819;DHT22;64453;51.944;9.796;2023-12-04T07:27:50;6.10;41.70
75819;DHT22;64453;51.944;9.796;2023-12-04T07:30:17;6.40;41.50
75819;DHT22;64453;51.944;9.796;2023-12-04T07:32:47;6.60;42.10
75819;DHT22;64453;51.944;9.796;2023-12-04T07:35:14;6.20;42.30
75819;DHT22;64453;51.944;9.796;2023-12-04T07:37:43;6.40;42.60
75819;DHT22;64453;51.944;9.796;2023-12-04T07:40:11;6.50;42.50
75819;DHT22;64453;51.944;9.796;2023-12-04T07:42:38;6.70;42.80
75819;DHT22;64453;51.944;9.796;2023-12-04T07:45:06;6.60;42.20
75819;DHT22;64453;51.944;9.796;2023-12-04T07:47:35;6.70;42.50
75819;DHT22;64453;51.944;9.796;2023-12-04T07:50:04;6.50;42.50
75819;DHT22;64453;51.944;9.796;2023-12-04T07:52:33;6.70;42.50
75819;DHT22;64453;51.944;9.796;2023-12-04T07:55:00;6.70;42.60
75819;DHT22;64453;51.944;9.796;2023-12-04T07:57:27;6.70;42.60
75819;DHT22;64453;51.944;9.796;2023-12-04T07:59:53;6.60;42.50
75819;DHT22;64453;51.944;9.796;2023-12-04T08:02:20;6.60;42.50
75819;DHT22;64453;51.944;9.796;2023-12-04T08:04:47;6.60;42.60
75819;DHT22;64453;51.944;9.796;2023-12-04T08:07:15;6.50;42.60
75819;DHT22;64453;51.944;9.796;2023-12-04T08:09:42;6.70;43.00
75819;DHT22;64453;51.944;9.796;2023-12-04T08:12:09;6.70;42.60
75819;DHT22;64453;51.944;9.796;2023-12-04T08:14:36;6.50;42.70
75819;DHT22;64453;51.944;9.796;2023-12-04T08:17:03;6.70;42.70
75819;DHT22;64453;51.944;9.796;2023-12-04T08:19:30;6.80;42.60
75819;DHT22;64453;51.944;9.796;2023-12-04T08:21:57;6.70;42.70
75819;DHT22;64453;51.944;9.796;2023-12-04T08:24:25;6.80;42.40
75819;DHT22;64453;51.944;9.796;2023-12-04T08:26:52;6.80;42.30
75819;DHT22;64453;51.944;9.796;2023-12-04T08:29:19;6.80;42.30
75819;DHT22;64453;51.944;9.796;2023-12-04T08:31:46;6.70;42.30
75819;DHT22;64453;51.944;9.796;2023-12-04T08:34:13;6.70;42.60
75819;DHT22;64453;51.944;9.796;2023-12-04T08:36:41;6.70;42.20
75819;DHT22;64453;51.944;9.796;2023-12-04T08:39:08;6.60;42.70
75819;DHT22;64453;51.944;9.796;2023-12-04T08:41:36;6.70;42.40
75819;DHT22;64453;51.944;9.796;2023-12-04T08:44:03;6.70;41.50
75819;DHT22;64453;51.944;9.796;2023-12-04T08:46:31;6.70;41.90
75819;DHT22;64453;51.944;9.796;2023-12-04T08:48:57;6.70;42.40
75819;DHT22;64453;51.944;9.796;2023-12-04T08:51:24;6.80;42.50
75819;DHT22;64453;51.944;9.796;2023-12-04T08:53:51;6.70;42.20
75819;DHT22;64453;51.944;9.796;2023-12-04T08:56:18;6.80;41.60
75819;DHT22;64453;51.944;9.796;2023-12-04T08:58:46;6.70;40.90
75819;DHT22;64453;51.944;9.796;2023-12-04T09:01:13;6.80;42.20
75819;DHT22;64453;51.944;9.796;2023-12-04T09:03:40;6.90;41.60
75819;DHT22;64453;51.944;9.796;2023-12-04T09:06:08;6.80;41.80
75819;DHT22;64453;51.944;9.796;2023-12-04T09:08:35;6.90;41.70
75819;DHT22;64453;51.944;9.796;2023-12-04T09:11:02;6.60;41.20
75819;DHT22;64453;51.944;9.796;2023-12-04T09:13:29;6.70;42.70
75819;DHT22;64453;51.944;9.796;2023-12-04T09:15:59;6.80;41.80
75819;DHT22;64453;51.944;9.796;2023-12-04T09:18:26;6.80;42.20
75819;DHT22;64453;51.944;9.796;2023-12-04T09:20:53;6.80;41.90
75819;DHT22;64453;51.944;9.796;2023-12-04T09:23:20;6.60;41.90
75819;DHT22;64453;51.944;9.796;2023-12-04T09:25:47;6.40;42.80
75819;DHT22;64453;51.944;9.796;2023-12-04T09:28:14;6.40;43.70
75819;DHT22;64453;51.944;9.796;2023-12-04T09:30:41;6.60;42.20
75819;DHT22;64453;51.944;9.796;2023-12-04T09:33:09;6.60;42.90
75819;DHT22;64453;51.944;9.796;2023-12-04T09:35:36;6.70;43.70
75819;DHT22;64453;51.944;9.796;2023-12-04T09:38:02;6.60;43.30
75819;DHT22;64453;51.944;9.796;2023-12-04T09:40:29;6.60;43.00
75819;DHT22;64453;51.944;9.796;2023-12-04T09:42:56;6.40;42.00
75819;DHT22;64453;51.944;9.796;2023-12-04T09:45:24;6.50;43.00
75819;DHT22;64453;51.944;9.796;2023-12-04T09:47:51;6.60;44.20
75819;DHT22;64453;51.944;9.796;2023-12-04T09:50:20;6.30;42.70
75819;DHT22;64453;51.944;9.796;2023-12-04T09:52:48;6.60;43.60
75819;DHT22;64453;51.944;9.796;2023-12-04T09:55:16;6.60;44.00
75819;DHT22;64453;51.944;9.796;2023-12-04T09:57:44;6.80;43.30
75819;DHT22;64453;51.944;9.796;2023-12-04T10:00:13;6.80;42.90
75819;DHT22;64453;51.944;9.796;2023-12-04T10:02:41;6.60;42.10
75819;DHT22;64453;51.944;9.796;2023-12-04T10:05:08;6.50;43.90
75819;DHT22;64453;51.944;9.796;2023-12-04T10:07:36;6.50;43.80
75819;DHT22;64453;51.944;9.796;2023-12-04T10:10:04;6.60;42.50
75819;DHT22;64453;51.944;9.796;2023-12-04T10:12:32;6.70;43.20
75819;DHT22;64453;51.944;9.796;2023-12-04T10:15:04;6.70;42.50
75819;DHT22;64453;51.944;9.796;2023-12-04T10:17:36;6.70;43.10
75819;DHT22;64453;51.944;9.796;2023-12-04T10:20:05;6.70;42.60
75819;DHT22;64453;51.944;9.796;2023-12-04T10:22:39;6.80;43.30
75819;DHT22;64453;51.944;9.796;2023-12-04T10:25:24;6.90;44.00
75819;DHT22;64453;51.944;9.796;2023-12-04T10:27:53;6.90;43.60
75819;DHT22;64453;51.944;9.796;2023-12-04T10:30:25;6.90;42.90
75819;DHT22;64453;51.944;9.796;2023-12-04T10:32:57;7.00;43.40
75819;DHT22;64453;51.944;9.796;2023-12-04T10:35:28;7.00;42.40
75819;DHT22;64453;51.944;9.796;2023-12-04T10:37:57;7.00;42.20
75819;DHT22;64453;51.944;9.796;2023-12-04T10:40:26;7.00;42.30
75819;DHT22;64453;51.944;9.796;2023-12-04T10:43:10;6.90;42.50
75819;DHT22;64453;51.944;9.796;2023-12-04T10:45:39;6.90;42.20
75819;DHT22;64453;51.944;9.796;2023-12-04T10:48:08;7.00;42.60
75819;DHT22;64453;51.944;9.796;2023-12-04T10:50:36;7.00;43.40
75819;DHT22;64453;51.944;9.796;2023-12-04T10:53:06;7.10;42.50
75819;DHT22;64453;51.944;9.796;2023-12-04T10:55:34;7.00;42.90
75819;DHT22;64453;51.944;9.796;2023-12-04T10:58:05;7.00;43.10
75819;DHT22;64453;51.944;9.796;2023-12-04T11:00:34;7.10;42.60
75819;DHT22;64453;51.944;9.796;2023-12-04T11:03:05;7.20;42.60
75819;DHT22;64453;51.944;9.796;2023-12-04T11:05:37;7.20;42.30
75819;DHT22;64453;51.944;9.796;2023-12-04T11:08:08;7.30;41.80
75819;DHT22;64453;51.944;9.796;2023-12-04T11:10:43;7.10;42.50
75819;DHT22;64453;51.944;9.796;2023-12-04T11:13:17;7.20;42.40
75819;DHT22;64453;51.944;9.796;2023-12-04T11:15:48;7.20;41.80
75819;DHT22;64453;51.944;9.796;2023-12-04T11:18:16;7.20;41.30
75819;DHT22;64453;51.944;9.796;2023-12-04T11:20:51;7.10;42.50
75819;DHT22;64453;51.944;9.796;2023-12-04T11:23:24;7.20;42.40
75819;DHT22;64453;51.944;9.796;2023-12-04T11:25:53;7.20;42.00
75819;DHT22;64453;51.944;9.796;2023-12-04T11:28:20;7.10;43.30
75819;DHT22;64453;51.944;9.796;2023-12-04T11:30:47;7.10;43.10
75819;DHT22;64453;51.944;9.796;2023-12-04T11:33:15;7.10;43.50
75819;DHT22;64453;51.944;9.796;2023-12-04T11:35:44;7.20;40.80
75819;DHT22;64453;51.944;9.796;2023-12-04T11:38:13;6.60;40.20
75819;DHT22;64453;51.944;9.796;2023-12-04T11:40:42;7.00;42.20
75819;DHT22;64453;51.944;9.796;2023-12-04T11:43:23;7.10;42.30
75819;DHT22;64453;51.944;9.796;2023-12-04T11:45:51;7.30;42.10
75819;DHT22;64453;51.944;9.796;2023-12-04T11:48:22;7.30;42.30
75819;DHT22;64453;51.944;9.796;2023-12-04T11:50:50;7.30;41.50
75819;DHT22;64453;51.944;9.796;2023-12-04T11:53:17;7.20;41.10
75819;DHT22;64453;51.944;9.796;2023-12-04T11:55:46;6.90;40.50
75819;DHT22;64453;51.944;9.796;2023-12-04T11:58:13;7.00;41.20
75819;DHT22;64453;51.944;9.796;2023-12-04T12:00:42;7.00;41.00
75819;DHT22;64453;51.944;9.796;2023-12-04T12:03:09;7.10;42.90
75819;DHT22;64453;51.944;9.796;2023-12-04T12:05:36;7.00;40.70
75819;DHT22;64453;51.944;9.796;2023-12-04T12:08:05;7.10;41.90
75819;DHT22;64453;51.944;9.796;2023-12-04T12:10:33;7.20;42.20
75819;DHT22;64453;51.944;9.796;2023-12-04T12:13:02;7.30;41.00
75819;DHT22;64453;51.944;9.796;2023-12-04T12:15:29;7.40;41.40
75819;DHT22;64453;51.944;9.796;2023-12-04T12:17:55;7.30;42.00
75819;DHT22;64453;51.944;9.796;2023-12-04T12:20:22;7.40;42.10
75819;DHT22;64453;51.944;9.796;2023-12-04T12:22:49;7.40;41.30
75819;DHT22;64453;51.944;9.796;2023-12-04T12:25:17;7.30;42.30
75819;DHT22;64453;51.944;9.796;2023-12-04T12:27:45;7.30;42.30
75819;DHT22;64453;51.944;9.796;2023-12-04T12:30:13;7.30;41.80
75819;DHT22;64453;51.944;9.796;2023-12-04T12:32:40;7.40;41.20
75819;DHT22;64453;51.944;9.796;2023-12-04T12:35:07;7.50;41.60
75819;DHT22;64453;51.944;9.796;2023-12-04T12:37:35;7.40;41.50
75819;DHT22;64453;51.944;9.796;2023-12-04T12:40:04;7.30;42.00
75819;DHT22;64453;51.944;9.796;2023-12-04T12:42:35;7.30;41.30
75819;DHT22;64453;51.944;9.796;2023-12-04T12:45:04;7.40;42.00
75819;DHT22;64453;51.944;9.796;2023-12-04T12:47:32;7.40;41.80
75819;DHT22;64453;51.944;9.796;2023-12-04T12:50:01;7.30;41.70
75819;DHT22;64453;51.944;9.796;2023-12-04T12:52:30;7.30;42.10
75819;DHT22;64453;51.944;9.796;2023-12-04T12:54:56;7.30;42.80
75819;DHT22;64453;51.944;9.796;2023-12-04T12:57:23;7.30;41.00
75819;DHT22;64453;51.944;9.796;2023-12-04T12:59:52;7.40;42.10
75819;DHT22;64453;51.944;9.796;2023-12-04T13:02:20;7.40;42.50
75819;DHT22;64453;51.944;9.796;2023-12-04T13:04:50;7.20;40.40
75819;DHT22;64453;51.944;9.796;2023-12-04T13:07:17;7.20;40.90
75819;DHT22;64453;51.944;9.796;2023-12-04T13:09:46;7.30;42.50
75819;DHT22;64453;51.944;9.796;2023-12-04T13:12:13;7.40;42.30
75819;DHT22;64453;51.944;9.796;2023-12-04T13:14:41;7.40;40.30
75819;DHT22;64453;51.944;9.796;2023-12-04T13:17:08;7.40;41.70
75819;DHT22;64453;51.944;9.796;2023-12-04T13:19:35;7.40;40.20
75819;DHT22;64453;51.944;9.796;2023-12-04T13:22:04;7.40;41.60
75819;DHT22;64453;51.944;9.796;2023-12-04T13:24:31;7.50;41.30
75819;DHT22;64453;51.944;9.796;2023-12-04T13:26:58;7.50;41.50
75819;DHT22;64453;51.944;9.796;2023-12-04T13:29:25;7.40;41.60
75819;DHT22;64453;51.944;9.796;2023-12-04T13:31:52;7.40;41.30
75819;DHT22;64453;51.944;9.796;2023-12-04T13:34:18;7.40;42.10
75819;DHT22;64453;51.944;9.796;2023-12-04T13:36:45;7.30;42.70
75819;DHT22;64453;51.944;9.796;2023-12-04T13:39:13;7.50;41.90
75819;DHT22;64453;51.944;9.796;2023-12-04T13:41:45;7.40;41.70
75819;DHT22;64453;51.944;9.796;2023-12-04T13:44:30;7.40;42.10
75819;DHT22;64453;51.944;9.796;2023-12-04T13:46:59;7.40;41.70
75819;DHT22;64453;51.944;9.796;2023-12-04T13:49:25;7.50;40.80
75819;DHT22;64453;51.944;9.796;2023-12-04T13:51:52;7.50;40.80
75819;DHT22;64453;51.944;9.796;2023-12-04T13:54:21;7.50;41.60
75819;DHT22;64453;51.944;9.796;2023-12-04T13:57:01;7.50;41.50
75819;DHT22;64453;51.944;9.796;2023-12-04T13:59:29;7.40;41.00
75819;DHT22;64453;51.944;9.796;2023-12-04T14:01:59;7.30;40.80
75819;DHT22;64453;51.944;9.796;2023-12-04T14:04:34;7.50;41.10
75819;DHT22;64453;51.944;9.796;2023-12-04T14:07:01;7.40;42.90
75819;DHT22;64453;51.944;9.796;2023-12-04T14:09:29;7.40;42.20
75819;DHT22;64453;51.944;9.796;2023-12-04T14:11:57;7.40;40.00
75819;DHT22;64453;51.944;9.796;2023-12-04T14:14:23;7.50;41.60
75819;DHT22;64453;51.944;9.796;2023-12-04T14:16:51;7.40;40.80
75819;DHT22;64453;51.944;9.796;2023-12-04T14:19:18;7.30;42.10
75819;DHT22;64453;51.944;9.796;2023-12-04T14:21:46;7.40;42.70
75819;DHT22;64453;51.944;9.796;2023-12-04T14:24:15;7.40;41.70
75819;DHT22;64453;51.944;9.796;2023-12-04T14:26:44;7.40;41.70
75819;DHT22;64453;51.944;9.796;2023-12-04T14:29:11;7.40;42.10
75819;DHT22;64453;51.944;9.796;2023-12-04T14:31:39;7.50;40.70
75819;DHT22;64453;51.944;9.796;2023-12-04T14:34:06;7.50;41.40
75819;DHT22;64453;51.944;9.796;2023-12-04T14:36:33;7.50;41.50
75819;DHT22;64453;51.944;9.796;2023-12-04T14:39:00;7.20;40.30
75819;DHT22;64453;51.944;9.796;2023-12-04T14:41:27;7.30;42.30
75819;DHT22;64453;51.944;9.796;2023-12-04T14:43:56;7.40;41.90
75819;DHT22;64453;51.944;9.796;2023-12-04T14:46:22;7.40;40.90
75819;DHT22;64453;51.944;9.796;2023-12-04T14:48:49;7.30;41.50
75819;DHT22;64453;51.944;9.796;2023-12-04T14:51:16;7.40;42.40
75819;DHT22;64453;51.944;9.796;2023-12-04T14:53:43;7.50;42.30
75819;DHT22;64453;51.944;9.796;2023-12-04T14:56:16;7.50;41.50
75819;DHT22;64453;51.944;9.796;2023-12-04T14:58:52;7.50;41.20
75819;DHT22;64453;51.944;9.796;2023-12-04T15:01:46;7.50;41.40
75819;DHT22;64453;51.944;9.796;2023-12-04T15:04:31;7.40;41.00
75819;DHT22;64453;51.944;9.796;2023-12-04T15:07:29;7.40;42.20
75819;DHT22;64453;51.944;9.796;2023-12-04T15:10:14;7.60;40.40
75819;DHT22;64453;51.944;9.796;2023-12-04T15:13:26;7.50;41.90
75819;DHT22;64453;51.944;9.796;2023-12-04T15:16:09;7.50;41.90
75819;DHT22;64453;51.944;9.796;2023-12-04T15:18:57;7.30;40.40
75819;DHT22;64453;51.944;9.796;2023-12-04T15:21:51;7.50;40.80
75819;DHT22;64453;51.944;9.796;2023-12-04T15:24:18;7.50;40.70
75819;DHT22;64453;51.944;9.796;2023-12-04T15:26:44;7.50;40.80
75819;DHT22;64453;51.944;9.796;2023-12-04T15:29:11;7.40;40.80
75819;DHT22;64453;51.944;9.796;2023-12-04T15:31:37;7.50;41.10
75819;DHT22;64453;51.944;9.796;2023-12-04T15:34:05;7.40;40.40
75819;DHT22;64453;51.944;9.796;2023-12-04T15:36:31;7.50;41.80
75819;DHT22;64453;51.944;9.796;2023-12-04T15:38:59;7.60;40.90
75819;DHT22;64453;51.944;9.796;2023-12-04T15:41:25;7.60;40.50
75819;DHT22;64453;51.944;9.796;2023-12-04T15:43:52;7.50;40.70
75819;DHT22;64453;51.944;9.796;2023-12-04T15:46:19;7.50;42.20
75819;DHT22;64453;51.944;9.796;2023-12-04T15:48:47;7.60;42.80
75819;DHT22;64453;51.944;9.796;2023-12-04T15:51:14;7.60;40.10